sensor_id;sensor_type;location;lat;lon;timestamp;pressure;altitude;pressure_sealevel;temperature;humidity
1401;BME280;46518;48.842;8.926;2024-01-15T00:00:13;96127.59;;;-2.52;97.81
1401;BME280;46518;48.842;8.926;2024-01-15T00:02:41;96120.09;;;-2.47;96.87
1401;BME280;46518;48.842;8.926;2024-01-15T00:05:09;96124.22;;;-2.53;97.46
1401;BME280;46518;48.842;8.926;2024-01-15T00:07:42;96122.50;;;-2.46;96.45
1401;BME280;46518;48.842;8.926;2024-01-15T00:10:13;96117.72;;;-2.49;97.28
1401;BME280;46518;48.842;8.926;2024-01-15T00:12:41;96114.31;;;-2.56;96.71
1401;BME280;46518;48.842;8.926;2024-01-15T00:15:12;96104.50;;;-2.67;97.61
1401;BME280;46518;48.842;8.926;2024-01-15T00:17:40;96115.31;;;-2.50;97.53
1401;BME280;46518;48.842;8.926;2024-01-15T00:20:09;96109.91;;;-2.62;97.88
1401;BME280;46518;48.842;8.926;2024-01-15T00:22:38;96115.47;;;-2.58;98.69
1401;BME280;46518;48.842;8.926;2024-01-15T00:25:07;96111.56;;;-2.54;99.06
1401;BME280;46518;48.842;8.926;2024-01-15T00:27:37;96118.09;;;-2.52;99.15
1401;BME280;46518;48.842;8.926;2024-01-15T00:30:06;96104.88;;;-2.42;98.74
1401;BME280;46518;48.842;8.926;2024-01-15T00:32:35;96110.38;;;-2.52;99.17
1401;BME280;46518;48.842;8.926;2024-01-15T00:35:04;96103.44;;;-2.51;98.86
1401;BME280;46518;48.842;8.926;2024-01-15T00:37:32;96103.47;;;-2.45;99.21
1401;BME280;46518;48.842;8.926;2024-01-15T00:40:00;96101.66;;;-2.51;98.84
1401;BME280;46518;48.842;8.926;2024-01-15T00:42:38;96099.53;;;-2.41;98.52
1401;BME280;46518;48.842;8.926;2024-01-15T00:45:09;96100.53;;;-2.42;98.12
1401;BME280;46518;48.842;8.926;2024-01-15T00:47:38;96106.53;;;-2.34;98.58
1401;BME280;46518;48.842;8.926;2024-01-15T00:50:07;96096.81;;;-2.32;98.63
1401;BME280;46518;48.842;8.926;2024-01-15T00:52:35;96103.13;;;-2.35;98.67
1401;BME280;46518;48.842;8.926;2024-01-15T00:55:06;96106.44;;;-2.13;98.21
1401;BME280;46518;48.842;8.926;2024-01-15T00:57:34;96106.00;;;-2.23;97.79
1401;BME280;46518;48.842;8.926;2024-01-15T01:00:06;96103.47;;;-2.17;98.80
1401;BME280;46518;48.842;8.926;2024-01-15T01:02:37;96101.94;;;-2.04;97.48
1401;BME280;46518;48.842;8.926;2024-01-15T01:05:05;96098.38;;;-2.03;97.51
1401;BME280;46518;48.842;8.926;2024-01-15T01:07:36;96102.91;;;-2.12;97.81
1401;BME280;46518;48.842;8.926;2024-01-15T01:10:05;96101.16;;;-1.98;97.01
1401;BME280;46518;48.842;8.926;2024-01-15T01:12:33;96103.13;;;-2.00;97.16
1401;BME280;46518;48.842;8.926;2024-01-15T01:15:06;96102.78;;;-1.97;96.79
1401;BME280;46518;48.842;8.926;2024-01-15T01:17:35;96096.97;;;-2.06;98.01
1401;BME280;46518;48.842;8.926;2024-01-15T01:20:04;96091.06;;;-1.93;97.15
1401;BME280;46518;48.842;8.926;2024-01-15T01:22:35;96094.22;;;-2.04;97.35
1401;BME280;46518;48.842;8.926;2024-01-15T01:25:08;96084.00;;;-1.84;96.86
1401;BME280;46518;48.842;8.926;2024-01-15T01:27:37;96090.91;;;-1.91;95.60
1401;BME280;46518;48.842;8.926;2024-01-15T01:30:11;96093.47;;;-1.91;95.63
1401;BME280;46518;48.842;8.926;2024-01-15T01:32:40;96081.56;;;-1.92;95.34
1401;BME280;46518;48.842;8.926;2024-01-15T01:35:08;96087.53;;;-1.92;95.04
1401;BME280;46518;48.842;8.926;2024-01-15T01:37:37;96091.69;;;-1.91;95.83
1401;BME280;46518;48.842;8.926;2024-01-15T01:40:05;96090.63;;;-2.03;95.91
1401;BME280;46518;48.842;8.926;2024-01-15T01:42:33;96084.88;;;-2.05;95.79
1401;BME280;46518;48.842;8.926;2024-01-15T01:45:02;96085.53;;;-1.97;96.21
1401;BME280;46518;48.842;8.926;2024-01-15T01:47:32;96079.94;;;-2.00;96.03
1401;BME280;46518;48.842;8.926;2024-01-15T01:50:04;96085.53;;;-1.97;96.01
1401;BME280;46518;48.842;8.926;2024-01-15T01:52:33;96075.78;;;-2.01;96.10
1401;BME280;46518;48.842;8.926;2024-01-15T01:55:03;96082.34;;;-1.99;96.10
1401;BME280;46518;48.842;8.926;2024-01-15T01:57:33;96078.56;;;-1.96;96.26
1401;BME280;46518;48.842;8.926;2024-01-15T02:00:02;96084.13;;;-1.99;96.43
1401;BME280;46518;48.842;8.926;2024-01-15T02:02:38;96081.56;;;-1.92;96.30
1401;BME280;46518;48.842;8.926;2024-01-15T02:05:07;96067.66;;;-1.98;95.28
1401;BME280;46518;48.842;8.926;2024-01-15T02:07:36;96085.00;;;-1.79;95.23
1401;BME280;46518;48.842;8.926;2024-01-15T02:10:05;96081.16;;;-1.96;95.40
1401;BME280;46518;48.842;8.926;2024-01-15T02:12:33;96078.19;;;-1.93;95.89
1401;BME280;46518;48.842;8.926;2024-01-15T02:15:02;96067.13;;;-1.80;95.15
1401;BME280;46518;48.842;8.926;2024-01-15T02:17:31;96072.25;;;-1.93;96.51
1401;BME280;46518;48.842;8.926;2024-01-15T02:20:01;96063.34;;;-1.84;95.30
1401;BME280;46518;48.842;8.926;2024-01-15T02:22:29;96074.72;;;-1.72;94.44
1401;BME280;46518;48.842;8.926;2024-01-15T02:24:59;96068.16;;;-1.75;95.19
1401;BME280;46518;48.842;8.926;2024-01-15T02:27:27;96068.88;;;-1.87;95.64
1401;BME280;46518;48.842;8.926;2024-01-15T02:29:56;96068.69;;;-1.86;95.78
1401;BME280;46518;48.842;8.926;2024-01-15T02:32:24;96060.56;;;-1.89;95.75
1401;BME280;46518;48.842;8.926;2024-01-15T02:34:52;96063.41;;;-1.71;95.73
1401;BME280;46518;48.842;8.926;2024-01-15T02:37:21;96061.59;;;-1.70;94.89
1401;BME280;46518;48.842;8.926;2024-01-15T02:39:49;96068.72;;;-1.73;95.25
1401;BME280;46518;48.842;8.926;2024-01-15T02:42:18;96065.56;;;-1.75;95.51
1401;BME280;46518;48.842;8.926;2024-01-15T02:44:49;96060.00;;;-1.78;96.06
1401;BME280;46518;48.842;8.926;2024-01-15T02:47:17;96061.03;;;-1.66;95.30
1401;BME280;46518;48.842;8.926;2024-01-15T02:49:45;96053.06;;;-1.78;94.87
1401;BME280;46518;48.842;8.926;2024-01-15T02:52:14;96060.63;;;-1.69;95.74
1401;BME280;46518;48.842;8.926;2024-01-15T02:54:42;96057.25;;;-1.70;94.46
1401;BME280;46518;48.842;8.926;2024-01-15T02:57:10;96057.84;;;-1.68;94.92
1401;BME280;46518;48.842;8.926;2024-01-15T02:59:40;96059.84;;;-1.63;95.12
1401;BME280;46518;48.842;8.926;2024-01-15T03:02:09;96054.88;;;-1.65;94.48
1401;BME280;46518;48.842;8.926;2024-01-15T03:04:37;96062.03;;;-1.60;94.74
1401;BME280;46518;48.842;8.926;2024-01-15T03:07:05;96065.63;;;-1.61;94.45
1401;BME280;46518;48.842;8.926;2024-01-15T03:09:33;96067.00;;;-1.59;94.15
1401;BME280;46518;48.842;8.926;2024-01-15T03:12:02;96060.25;;;-1.66;94.61
1401;BME280;46518;48.842;8.926;2024-01-15T03:14:32;96070.94;;;-1.63;95.48
1401;BME280;46518;48.842;8.926;2024-01-15T03:17:02;96068.19;;;-1.61;94.53
1401;BME280;46518;48.842;8.926;2024-01-15T03:19:30;96058.84;;;-1.62;95.08
1401;BME280;46518;48.842;8.926;2024-01-15T03:21:58;96055.53;;;-1.49;94.44
1401;BME280;46518;48.842;8.926;2024-01-15T03:24:27;96052.19;;;-1.37;93.69
1401;BME280;46518;48.842;8.926;2024-01-15T03:26:55;96063.09;;;-1.41;93.10
1401;BME280;46518;48.842;8.926;2024-01-15T03:29:24;96057.91;;;-1.48;93.49
1401;BME280;46518;48.842;8.926;2024-01-15T03:31:52;96063.47;;;-1.44;92.87
1401;BME280;46518;48.842;8.926;2024-01-15T03:34:22;96057.53;;;-1.25;92.33
1401;BME280;46518;48.842;8.926;2024-01-15T03:36:50;96061.72;;;-1.31;92.33
1401;BME280;46518;48.842;8.926;2024-01-15T03:39:18;96058.16;;;-1.29;92.64
1401;BME280;46518;48.842;8.926;2024-01-15T03:41:46;96063.88;;;-1.27;92.32
1401;BME280;46518;48.842;8.926;2024-01-15T03:44:14;96059.94;;;-1.23;91.85
1401;BME280;46518;48.842;8.926;2024-01-15T03:46:43;96054.94;;;-1.25;92.19
1401;BME280;46518;48.842;8.926;2024-01-15T03:49:11;96055.16;;;-1.26;92.76
1401;BME280;46518;48.842;8.926;2024-01-15T03:51:40;96047.22;;;-1.18;92.91
1401;BME280;46518;48.842;8.926;2024-01-15T03:54:09;96061.94;;;-1.12;92.46
1401;BME280;46518;48.842;8.926;2024-01-15T03:56:37;96051.19;;;-1.29;92.81
1401;BME280;46518;48.842;8.926;2024-01-15T03:59:05;96051.19;;;-1.22;92.48
1401;BME280;46518;48.842;8.926;2024-01-15T04:01:33;96047.03;;;-1.23;93.20
1401;BME280;46518;48.842;8.926;2024-01-15T04:04:01;96045.06;;;-1.15;92.14
1401;BME280;46518;48.842;8.926;2024-01-15T04:06:29;96041.25;;;-1.25;93.37
1401;BME280;46518;48.842;8.926;2024-01-15T04:09:00;96037.31;;;-1.21;92.47
1401;BME280;46518;48.842;8.926;2024-01-15T04:11:28;96032.75;;;-1.19;92.08
1401;BME280;46518;48.842;8.926;2024-01-15T04:13:56;96028.56;;;-1.20;92.10
1401;BME280;46518;48.842;8.926;2024-01-15T04:16:24;96022.59;;;-1.21;92.61
1401;BME280;46518;48.842;8.926;2024-01-15T04:18:52;96022.19;;;-1.18;92.34
1401;BME280;46518;48.842;8.926;2024-01-15T04:21:21;96027.78;;;-1.14;91.61
1401;BME280;46518;48.842;8.926;2024-01-15T04:23:49;96023.22;;;-0.99;92.13
1401;BME280;46518;48.842;8.926;2024-01-15T04:26:18;96027.59;;;-0.99;90.74
1401;BME280;46518;48.842;8.926;2024-01-15T04:28:47;96016.66;;;-1.01;90.03
1401;BME280;46518;48.842;8.926;2024-01-15T04:31:22;96011.31;;;-1.00;90.16
1401;BME280;46518;48.842;8.926;2024-01-15T04:33:51;96006.94;;;-0.99;90.35
1401;BME280;46518;48.842;8.926;2024-01-15T04:36:19;96014.28;;;-0.96;90.17
1401;BME280;46518;48.842;8.926;2024-01-15T04:38:47;96004.34;;;-0.99;89.59
1401;BME280;46518;48.842;8.926;2024-01-15T04:41:16;96005.53;;;-1.02;89.71
1401;BME280;46518;48.842;8.926;2024-01-15T04:43:46;95996.00;;;-1.08;90.00
1401;BME280;46518;48.842;8.926;2024-01-15T04:46:14;95994.81;;;-0.92;89.54
1401;BME280;46518;48.842;8.926;2024-01-15T04:48:42;96000.97;;;-0.87;89.36
1401;BME280;46518;48.842;8.926;2024-01-15T04:51:11;96010.09;;;-0.91;89.36
1401;BME280;46518;48.842;8.926;2024-01-15T04:53:39;96003.94;;;-0.96;88.92
1401;BME280;46518;48.842;8.926;2024-01-15T04:56:07;96005.31;;;-0.74;88.22
1401;BME280;46518;48.842;8.926;2024-01-15T04:58:35;96018.22;;;-0.74;88.15
1401;BME280;46518;48.842;8.926;2024-01-15T05:01:04;96006.69;;;-0.78;87.92
1401;BME280;46518;48.842;8.926;2024-01-15T05:03:33;95996.19;;;-0.76;88.62
1401;BME280;46518;48.842;8.926;2024-01-15T05:06:01;96004.31;;;-0.73;87.67
1401;BME280;46518;48.842;8.926;2024-01-15T05:08:30;96000.53;;;-0.57;86.74
1401;BME280;46518;48.842;8.926;2024-01-15T05:10:58;95991.59;;;-0.81;88.57
1401;BME280;46518;48.842;8.926;2024-01-15T05:13:26;95992.81;;;-0.83;88.74
1401;BME280;46518;48.842;8.926;2024-01-15T05:15:54;95991.81;;;-1.02;89.98
1401;BME280;46518;48.842;8.926;2024-01-15T05:18:24;95985.69;;;-0.95;88.90
1401;BME280;46518;48.842;8.926;2024-01-15T05:20:52;95971.56;;;-0.92;89.80
1401;BME280;46518;48.842;8.926;2024-01-15T05:23:21;95970.59;;;-1.04;89.17
1401;BME280;46518;48.842;8.926;2024-01-15T05:25:49;95976.13;;;-1.01;89.85
1401;BME280;46518;48.842;8.926;2024-01-15T05:28:17;95979.88;;;-0.77;88.46
1401;BME280;46518;48.842;8.926;2024-01-15T05:30:45;95985.25;;;-0.78;87.53
1401;BME280;46518;48.842;8.926;2024-01-15T05:33:14;95973.25;;;-0.53;87.31
1401;BME280;46518;48.842;8.926;2024-01-15T05:35:43;95970.75;;;-0.86;87.34
1401;BME280;46518;48.842;8.926;2024-01-15T05:38:12;95974.50;;;-0.69;86.80
1401;BME280;46518;48.842;8.926;2024-01-15T05:40:40;95972.31;;;-0.78;87.63
1401;BME280;46518;48.842;8.926;2024-01-15T05:43:08;95975.31;;;-0.75;88.09
1401;BME280;46518;48.842;8.926;2024-01-15T05:45:38;95975.88;;;-0.66;87.24
1401;BME280;46518;48.842;8.926;2024-01-15T05:48:06;95974.91;;;-0.78;87.97
1401;BME280;46518;48.842;8.926;2024-01-15T05:50:35;95968.91;;;-0.66;86.91
1401;BME280;46518;48.842;8.926;2024-01-15T05:53:04;95978.66;;;-0.61;87.02
1401;BME280;46518;48.842;8.926;2024-01-15T05:55:32;95976.84;;;-0.47;86.29
1401;BME280;46518;48.842;8.926;2024-01-15T05:58:00;95975.84;;;-0.53;86.61
1401;BME280;46518;48.842;8.926;2024-01-15T06:00:28;95972.47;;;-0.53;85.88
1401;BME280;46518;48.842;8.926;2024-01-15T06:02:57;95961.81;;;-0.77;87.02
1401;BME280;46518;48.842;8.926;2024-01-15T06:05:25;95956.47;;;-0.89;87.13
1401;BME280;46518;48.842;8.926;2024-01-15T06:07:53;95960.56;;;-0.68;86.87
1401;BME280;46518;48.842;8.926;2024-01-15T06:10:22;95953.63;;;-0.67;87.45
1401;BME280;46518;48.842;8.926;2024-01-15T06:12:51;95949.81;;;-0.58;86.90
1401;BME280;46518;48.842;8.926;2024-01-15T06:15:19;95946.69;;;-0.73;86.47
1401;BME280;46518;48.842;8.926;2024-01-15T06:17:47;95949.53;;;-0.95;87.45
1401;BME280;46518;48.842;8.926;2024-01-15T06:20:15;95939.75;;;-0.93;87.71
1401;BME280;46518;48.842;8.926;2024-01-15T06:22:43;95942.16;;;-0.91;87.72
1401;BME280;46518;48.842;8.926;2024-01-15T06:25:11;95943.34;;;-0.94;88.20
1401;BME280;46518;48.842;8.926;2024-01-15T06:27:41;95931.81;;;-0.84;87.21
1401;BME280;46518;48.842;8.926;2024-01-15T06:30:10;95929.00;;;-0.76;86.40
1401;BME280;46518;48.842;8.926;2024-01-15T06:32:39;95939.53;;;-0.64;85.02
1401;BME280;46518;48.842;8.926;2024-01-15T06:35:08;95947.22;;;-0.45;85.32
1401;BME280;46518;48.842;8.926;2024-01-15T06:37:37;95949.38;;;-0.41;84.17
1401;BME280;46518;48.842;8.926;2024-01-15T06:40:06;95956.72;;;-0.38;83.95
1401;BME280;46518;48.842;8.926;2024-01-15T06:42:35;95951.91;;;-0.28;82.41
1401;BME280;46518;48.842;8.926;2024-01-15T06:45:05;95955.44;;;-0.16;82.25
1401;BME280;46518;48.842;8.926;2024-01-15T06:47:34;95950.03;;;-0.08;80.74
1401;BME280;46518;48.842;8.926;2024-01-15T06:50:02;95951.72;;;-0.33;80.85
1401;BME280;46518;48.842;8.926;2024-01-15T06:52:32;95948.56;;;-0.35;81.26
1401;BME280;46518;48.842;8.926;2024-01-15T06:55:00;95947.59;;;-0.03;81.77
1401;BME280;46518;48.842;8.926;2024-01-15T06:57:28;95947.75;;;0.09;80.99
1401;BME280;46518;48.842;8.926;2024-01-15T06:59:56;95951.44;;;-0.12;80.37
1401;BME280;46518;48.842;8.926;2024-01-15T07:02:25;95951.78;;;0.05;80.13
1401;BME280;46518;48.842;8.926;2024-01-15T07:04:54;95947.91;;;-0.17;80.04
1401;BME280;46518;48.842;8.926;2024-01-15T07:07:22;95952.03;;;-0.10;81.67
1401;BME280;46518;48.842;8.926;2024-01-15T07:09:50;95952.69;;;-0.28;82.14
1401;BME280;46518;48.842;8.926;2024-01-15T07:12:19;95956.72;;;-0.38;82.95
1401;BME280;46518;48.842;8.926;2024-01-15T07:14:47;95953.59;;;-0.54;85.14
1401;BME280;46518;48.842;8.926;2024-01-15T07:17:16;95953.59;;;-0.54;83.96
1401;BME280;46518;48.842;8.926;2024-01-15T07:19:45;95954.19;;;-0.58;85.04
1401;BME280;46518;48.842;8.926;2024-01-15T07:22:14;95951.84;;;-0.60;84.14
1401;BME280;46518;48.842;8.926;2024-01-15T07:24:43;95951.88;;;-0.80;86.60
1401;BME280;46518;48.842;8.926;2024-01-15T07:27:12;95957.38;;;-0.56;85.26
1401;BME280;46518;48.842;8.926;2024-01-15T07:29:40;95953.03;;;-0.69;86.34
1401;BME280;46518;48.842;8.926;2024-01-15T07:32:09;95950.28;;;-0.81;85.36
1401;BME280;46518;48.842;8.926;2024-01-15T07:34:37;95950.22;;;-0.61;85.54
1401;BME280;46518;48.842;8.926;2024-01-15T07:37:07;95955.47;;;-0.94;85.84
1401;BME280;46518;48.842;8.926;2024-01-15T07:39:35;95948.44;;;-0.60;86.61
1401;BME280;46518;48.842;8.926;2024-01-15T07:42:04;95958.63;;;-0.85;85.70
1401;BME280;46518;48.842;8.926;2024-01-15T07:44:32;95949.50;;;-0.81;85.91
1401;BME280;46518;48.842;8.926;2024-01-15T07:47:00;95952.88;;;-0.88;86.19
1401;BME280;46518;48.842;8.926;2024-01-15T07:49:28;95947.72;;;-0.94;85.86
1401;BME280;46518;48.842;8.926;2024-01-15T07:51:57;95945.47;;;-0.64;84.83
1401;BME280;46518;48.842;8.926;2024-01-15T07:54:26;95944.91;;;-0.79;86.00
1401;BME280;46518;48.842;8.926;2024-01-15T07:56:55;95945.91;;;-0.80;84.21
1401;BME280;46518;48.842;8.926;2024-01-15T07:59:24;95942.13;;;-0.78;84.67
1401;BME280;46518;48.842;8.926;2024-01-15T08:01:53;95942.31;;;-0.73;84.36
1401;BME280;46518;48.842;8.926;2024-01-15T08:04:21;95954.19;;;-0.58;82.74
1401;BME280;46518;48.842;8.926;2024-01-15T08:06:52;95962.72;;;-0.51;82.86
1401;BME280;46518;48.842;8.926;2024-01-15T08:09:20;95968.50;;;-0.49;82.56
1401;BME280;46518;48.842;8.926;2024-01-15T08:11:50;95962.47;;;-0.36;81.86
1401;BME280;46518;48.842;8.926;2024-01-15T08:14:18;95960.06;;;-0.25;82.36
1401;BME280;46518;48.842;8.926;2024-01-15T08:16:47;95965.22;;;-0.25;81.30
1401;BME280;46518;48.842;8.926;2024-01-15T08:19:15;95962.06;;;-0.33;82.29
1401;BME280;46518;48.842;8.926;2024-01-15T08:21:43;95965.31;;;-0.45;80.91
1401;BME280;46518;48.842;8.926;2024-01-15T08:24:12;95957.91;;;-0.34;81.01
1401;BME280;46518;48.842;8.926;2024-01-15T08:26:40;95957.22;;;-0.16;80.88
1401;BME280;46518;48.842;8.926;2024-01-15T08:29:10;95962.28;;;-0.35;80.64
1401;BME280;46518;48.842;8.926;2024-01-15T08:31:38;95957.78;;;-0.08;79.62
1401;BME280;46518;48.842;8.926;2024-01-15T08:34:07;95957.59;;;-0.06;78.75
1401;BME280;46518;48.842;8.926;2024-01-15T08:36:35;95954.06;;;-0.25;78.81
1401;BME280;46518;48.842;8.926;2024-01-15T08:39:04;95958.03;;;-0.16;78.98
1401;BME280;46518;48.842;8.926;2024-01-15T08:41:32;95952.38;;;0.01;78.77
1401;BME280;46518;48.842;8.926;2024-01-15T08:44:01;95952.75;;;0.04;78.77
1401;BME280;46518;48.842;8.926;2024-01-15T08:46:31;95950.44;;;-0.11;79.20
1401;BME280;46518;48.842;8.926;2024-01-15T08:48:59;95953.81;;;-0.10;79.35
1401;BME280;46518;48.842;8.926;2024-01-15T08:51:27;95952.88;;;-0.23;79.84
1401;BME280;46518;48.842;8.926;2024-01-15T08:53:56;95954.03;;;-0.12;80.47
1401;BME280;46518;48.842;8.926;2024-01-15T08:56:24;95949.28;;;-0.15;80.90
1401;BME280;46518;48.842;8.926;2024-01-15T08:58:54;95952.41;;;-0.06;80.82
1401;BME280;46518;48.842;8.926;2024-01-15T09:01:23;95950.19;;;-0.03;81.96
1401;BME280;46518;48.842;8.926;2024-01-15T09:03:52;95956.19;;;-0.02;79.86
1401;BME280;46518;48.842;8.926;2024-01-15T09:06:21;95947.44;;;-0.08;79.69
1401;BME280;46518;48.842;8.926;2024-01-15T09:08:49;95947.59;;;-0.03;79.43
1401;BME280;46518;48.842;8.926;2024-01-15T09:11:18;95938.25;;;0.03;78.78
1401;BME280;46518;48.842;8.926;2024-01-15T09:13:46;95944.03;;;-0.02;80.00
1401;BME280;46518;48.842;8.926;2024-01-15T09:16:14;95930.69;;;0.02;79.52
1401;BME280;46518;48.842;8.926;2024-01-15T09:18:43;95923.88;;;0.07;78.14
1401;BME280;46518;48.842;8.926;2024-01-15T09:21:12;95923.72;;;0.02;78.72
1401;BME280;46518;48.842;8.926;2024-01-15T09:23:41;95925.38;;;-0.10;79.31
1401;BME280;46518;48.842;8.926;2024-01-15T09:26:09;95919.03;;;-0.14;79.75
1401;BME280;46518;48.842;8.926;2024-01-15T09:28:37;95934.88;;;0.03;79.36
1401;BME280;46518;48.842;8.926;2024-01-15T09:31:05;95936.09;;;-0.07;79.81
1401;BME280;46518;48.842;8.926;2024-01-15T09:33:34;95938.47;;;-0.05;79.98
1401;BME280;46518;48.842;8.926;2024-01-15T09:36:03;95936.88;;;0.01;79.40
1401;BME280;46518;48.842;8.926;2024-01-15T09:38:32;95945.13;;;0.16;79.68
1401;BME280;46518;48.842;8.926;2024-01-15T09:41:01;95936.59;;;0.15;80.20
1401;BME280;46518;48.842;8.926;2024-01-15T09:43:29;95934.91;;;-0.04;81.32
1401;BME280;46518;48.842;8.926;2024-01-15T09:45:58;95941.19;;;0.07;81.12
1401;BME280;46518;48.842;8.926;2024-01-15T09:48:27;95929.88;;;0.08;80.94
1401;BME280;46518;48.842;8.926;2024-01-15T09:50:57;95928.50;;;0.05;81.53
1401;BME280;46518;48.842;8.926;2024-01-15T09:53:26;95930.06;;;0.06;81.53
1401;BME280;46518;48.842;8.926;2024-01-15T09:55:56;95928.16;;;0.27;80.43
1401;BME280;46518;48.842;8.926;2024-01-15T09:58:24;95927.44;;;0.13;80.03
1401;BME280;46518;48.842;8.926;2024-01-15T10:00:53;95927.19;;;0.21;80.98
1401;BME280;46518;48.842;8.926;2024-01-15T10:03:22;95925.34;;;0.28;80.61
1401;BME280;46518;48.842;8.926;2024-01-15T10:05:50;95917.34;;;0.36;79.74
1401;BME280;46518;48.842;8.926;2024-01-15T10:08:19;95919.25;;;0.23;80.62
1401;BME280;46518;48.842;8.926;2024-01-15T10:10:48;95924.88;;;0.13;80.29
1401;BME280;46518;48.842;8.926;2024-01-15T10:13:18;95915.97;;;0.34;79.72
1401;BME280;46518;48.842;8.926;2024-01-15T10:15:47;95910.78;;;0.34;80.41
1401;BME280;46518;48.842;8.926;2024-01-15T10:18:15;95914.53;;;0.38;79.87
1401;BME280;46518;48.842;8.926;2024-01-15T10:20:44;95912.31;;;0.41;79.28
1401;BME280;46518;48.842;8.926;2024-01-15T10:23:14;95908.31;;;0.46;79.14
1401;BME280;46518;48.842;8.926;2024-01-15T10:25:42;95911.88;;;0.19;78.96
1401;BME280;46518;48.842;8.926;2024-01-15T10:28:10;95896.03;;;0.34;79.54
1401;BME280;46518;48.842;8.926;2024-01-15T10:30:40;95899.41;;;0.35;79.07
1401;BME280;46518;48.842;8.926;2024-01-15T10:33:09;95894.75;;;0.25;78.82
1401;BME280;46518;48.842;8.926;2024-01-15T10:35:39;95895.84;;;0.36;79.19
1401;BME280;46518;48.842;8.926;2024-01-15T10:38:08;95891.56;;;0.48;79.48
1401;BME280;46518;48.842;8.926;2024-01-15T10:40:37;95889.19;;;0.47;80.92
1401;BME280;46518;48.842;8.926;2024-01-15T10:43:05;95884.56;;;0.55;80.49
1401;BME280;46518;48.842;8.926;2024-01-15T10:45:33;95890.53;;;0.24;81.71
1401;BME280;46518;48.842;8.926;2024-01-15T10:48:03;95887.47;;;0.09;81.84
1401;BME280;46518;48.842;8.926;2024-01-15T10:50:32;95874.44;;;0.22;82.48
1401;BME280;46518;48.842;8.926;2024-01-15T10:53:00;95869.25;;;0.22;83.79
1401;BME280;46518;48.842;8.926;2024-01-15T10:55:30;95879.44;;;0.17;86.49
1401;BME280;46518;48.842;8.926;2024-01-15T10:57:59;95880.75;;;0.33;88.72
1401;BME280;46518;48.842;8.926;2024-01-15T11:00:28;95882.56;;;0.01;94.81
1401;BME280;46518;48.842;8.926;2024-01-15T11:02:57;95880.34;;;0.04;99.17
1401;BME280;46518;48.842;8.926;2024-01-15T11:05:26;95873.28;;;-0.14;100.00
1401;BME280;46518;48.842;8.926;2024-01-15T11:07:55;95879.06;;;-0.18;100.00
1401;BME280;46518;48.842;8.926;2024-01-15T11:10:43;95871.63;;;-0.02;100.00
1401;BME280;46518;48.842;8.926;2024-01-15T11:13:14;95863.81;;;-0.27;100.00
1401;BME280;46518;48.842;8.926;2024-01-15T11:15:59;95863.53;;;-0.12;100.00
1401;BME280;46518;48.842;8.926;2024-01-15T11:18:29;95861.22;;;-0.27;100.00
1401;BME280;46518;48.842;8.926;2024-01-15T11:21:21;95851.88;;;-0.28;100.00
1401;BME280;46518;48.842;8.926;2024-01-15T11:23:52;95852.25;;;-0.24;100.00
1401;BME280;46518;48.842;8.926;2024-01-15T11:26:34;95843.31;;;-0.22;100.00
1401;BME280;46518;48.842;8.926;2024-01-15T11:29:03;95853.69;;;-0.28;100.00
1401;BME280;46518;48.842;8.926;2024-01-15T11:32:04;95847.75;;;-0.35;100.00
1401;BME280;46518;48.842;8.926;2024-01-15T11:34:58;95839.25;;;-0.11;100.00
1401;BME280;46518;48.842;8.926;2024-01-15T11:37:59;95850.94;;;-0.02;100.00
1401;BME280;46518;48.842;8.926;2024-01-15T11:40:38;95849.28;;;-0.28;100.00
1401;BME280;46518;48.842;8.926;2024-01-15T11:43:09;95854.25;;;-0.26;100.00
1401;BME280;46518;48.842;8.926;2024-01-15T11:45:40;95844.66;;;-0.12;100.00
1401;BME280;46518;48.842;8.926;2024-01-15T11:48:10;95851.28;;;0.02;100.00
1401;BME280;46518;48.842;8.926;2024-01-15T11:50:40;95857.28;;;0.03;100.00
1401;BME280;46518;48.842;8.926;2024-01-15T11:53:17;95856.25;;;-0.28;100.00
1401;BME280;46518;48.842;8.926;2024-01-15T11:55:46;95854.84;;;-0.24;100.00
1401;BME280;46518;48.842;8.926;2024-01-15T11:58:15;95862.97;;;-0.20;100.00
1401;BME280;46518;48.842;8.926;2024-01-15T12:00:47;95857.34;;;-0.11;100.00
1401;BME280;46518;48.842;8.926;2024-01-15T12:03:17;95862.53;;;-0.11;100.00
1401;BME280;46518;48.842;8.926;2024-01-15T12:05:45;95861.28;;;-0.02;100.00
1401;BME280;46518;48.842;8.926;2024-01-15T12:08:22;95861.41;;;0.10;100.00
1401;BME280;46518;48.842;8.926;2024-01-15T12:10:51;95861.59;;;0.09;100.00
1401;BME280;46518;48.842;8.926;2024-01-15T12:13:20;95863.19;;;0.10;100.00
1401;BME280;46518;48.842;8.926;2024-01-15T12:15:49;95856.53;;;-0.05;100.00
1401;BME280;46518;48.842;8.926;2024-01-15T12:18:19;95858.09;;;-0.04;100.00
1401;BME280;46518;48.842;8.926;2024-01-15T12:20:48;95863.00;;;0.05;100.00
1401;BME280;46518;48.842;8.926;2024-01-15T12:23:17;95866.19;;;0.07;100.00
1401;BME280;46518;48.842;8.926;2024-01-15T12:25:47;95866.88;;;-0.05;100.00
1401;BME280;46518;48.842;8.926;2024-01-15T12:28:16;95865.25;;;0.01;100.00
1401;BME280;46518;48.842;8.926;2024-01-15T12:30:46;95865.38;;;0.13;100.00
1401;BME280;46518;48.842;8.926;2024-01-15T12:33:17;95861.19;;;0.12;100.00
1401;BME280;46518;48.842;8.926;2024-01-15T12:35:47;95874.91;;;0.12;100.00
1401;BME280;46518;48.842;8.926;2024-01-15T12:38:18;95870.00;;;0.29;100.00
1401;BME280;46518;48.842;8.926;2024-01-15T12:40:48;95867.13;;;0.12;100.00
1401;BME280;46518;48.842;8.926;2024-01-15T12:43:17;95862.72;;;0.19;100.00
1401;BME280;46518;48.842;8.926;2024-01-15T12:45:45;95868.19;;;0.05;100.00
1401;BME280;46518;48.842;8.926;2024-01-15T12:48:14;95870.47;;;0.19;100.00
1401;BME280;46518;48.842;8.926;2024-01-15T12:51:10;95872.88;;;0.21;100.00
1401;BME280;46518;48.842;8.926;2024-01-15T12:53:38;95870.53;;;0.13;100.00
1401;BME280;46518;48.842;8.926;2024-01-15T12:56:10;95879.34;;;0.05;100.00
1401;BME280;46518;48.842;8.926;2024-01-15T12:58:38;95878.19;;;-0.06;100.00
1401;BME280;46518;48.842;8.926;2024-01-15T13:01:06;95869.25;;;-0.03;100.00
1401;BME280;46518;48.842;8.926;2024-01-15T13:03:35;95869.53;;;-0.18;100.00
1401;BME280;46518;48.842;8.926;2024-01-15T13:06:04;95881.84;;;-0.13;100.00
1401;BME280;46518;48.842;8.926;2024-01-15T13:08:33;95891.13;;;-0.06;100.00
1401;BME280;46518;48.842;8.926;2024-01-15T13:11:01;95888.00;;;-0.14;100.00
1401;BME280;46518;48.842;8.926;2024-01-15T13:13:31;95895.53;;;-0.13;100.00
1401;BME280;46518;48.842;8.926;2024-01-15T13:16:01;95886.03;;;-0.12;100.00
1401;BME280;46518;48.842;8.926;2024-01-15T13:18:29;95885.59;;;-0.09;100.00
1401;BME280;46518;48.842;8.926;2024-01-15T13:20:58;95899.91;;;-0.07;100.00
1401;BME280;46518;48.842;8.926;2024-01-15T13:23:27;95884.97;;;-0.05;100.00